sensor_id;sensor_type;location;lat;lon;timestamp;temperature;humidity
57242;DHT22;43095;53.302;5.786;2022-11-14T00:01:19;5.80;99.90
57242;DHT22;43095;53.302;5.786;2022-11-14T00:04:05;5.80;99.90
57242;DHT22;43095;53.302;5.786;2022-11-14T00:06:50;5.80;99.90
57242;DHT22;43095;53.302;5.786;2022-11-14T00:09:37;5.90;99.90
57242;DHT22;43095;53.302;5.786;2022-11-14T00:12:27;5.80;99.90
57242;DHT22;43095;53.302;5.786;2022-11-14T00:15:12;5.90;99.90
57242;DHT22;43095;53.302;5.786;2022-11-14T00:17:58;5.90;99.90
57242;DHT22;43095;53.302;5.786;2022-11-14T00:20:47;5.90;99.90
57242;DHT22;43095;53.302;5.786;2022-11-14T00:23:33;5.90;99.90
57242;DHT22;43095;53.302;5.786;2022-11-14T00:26:18;5.90;99.90
57242;DHT22;43095;53.302;5.786;2022-11-14T00:29:04;6.00;99.90
57242;DHT22;43095;53.302;5.786;2022-11-14T00:31:49;6.00;99.90
57242;DHT22;43095;53.302;5.786;2022-11-14T00:34:35;6.00;99.90
57242;DHT22;43095;53.302;5.786;2022-11-14T00:37:21;6.10;99.90
57242;DHT22;43095;53.302;5.786;2022-11-14T00:40:07;6.10;99.90
57242;DHT22;43095;53.302;5.786;2022-11-14T00:42:53;6.10;99.90
57242;DHT22;43095;53.302;5.786;2022-11-14T00:45:38;6.10;99.90
57242;DHT22;43095;53.302;5.786;2022-11-14T00:48:24;6.10;99.90
57242;DHT22;43095;53.302;5.786;2022-11-14T00:51:10;6.20;99.90
57242;DHT22;43095;53.302;5.786;2022-11-14T00:53:55;6.20;99.90
57242;DHT22;43095;53.302;5.786;2022-11-14T00:56:41;6.30;99.90
57242;DHT22;43095;53.302;5.786;2022-11-14T00:59:26;6.20;99.90
57242;DHT22;43095;53.302;5.786;2022-11-14T01:02:12;6.30;99.90
57242;DHT22;43095;53.302;5.786;2022-11-14T01:04:58;6.40;99.90
57242;DHT22;43095;53.302;5.786;2022-11-14T01:07:43;6.30;99.90
57242;DHT22;43095;53.302;5.786;2022-11-14T01:10:29;6.30;99.90
57242;DHT22;43095;53.302;5.786;2022-11-14T01:13:16;6.30;99.90
57242;DHT22;43095;53.302;5.786;2022-11-14T01:16:02;6.40;99.90
57242;DHT22;43095;53.302;5.786;2022-11-14T01:18:48;6.40;99.90
57242;DHT22;43095;53.302;5.786;2022-11-14T01:21:33;6.40;99.90
57242;DHT22;43095;53.302;5.786;2022-11-14T01:24:19;6.40;99.90
57242;DHT22;43095;53.302;5.786;2022-11-14T01:27:05;6.40;99.90
57242;DHT22;43095;53.302;5.786;2022-11-14T01:29:50;6.40;99.90
57242;DHT22;43095;53.302;5.786;2022-11-14T01:32:36;6.40;99.90
57242;DHT22;43095;53.302;5.786;2022-11-14T01:35:22;6.50;99.90
57242;DHT22;43095;53.302;5.786;2022-11-14T01:38:12;6.50;99.90
57242;DHT22;43095;53.302;5.786;2022-11-14T01:40:59;6.60;99.90
57242;DHT22;43095;53.302;5.786;2022-11-14T01:43:45;6.50;99.90
57242;DHT22;43095;53.302;5.786;2022-11-14T01:46:35;6.60;99.90
57242;DHT22;43095;53.302;5.786;2022-11-14T01:49:25;6.70;99.90
57242;DHT22;43095;53.302;5.786;2022-11-14T01:52:18;6.60;99.90
57242;DHT22;43095;53.302;5.786;2022-11-14T01:55:07;6.60;99.90
57242;DHT22;43095;53.302;5.786;2022-11-14T01:57:54;6.70;99.90
57242;DHT22;43095;53.302;5.786;2022-11-14T02:00:42;6.70;99.90
57242;DHT22;43095;53.302;5.786;2022-11-14T02:03:28;6.70;99.90
57242;DHT22;43095;53.302;5.786;2022-11-14T02:06:17;6.70;99.90
57242;DHT22;43095;53.302;5.786;2022-11-14T02:09:05;6.70;99.90
57242;DHT22;43095;53.302;5.786;2022-11-14T02:11:53;6.80;99.90
57242;DHT22;43095;53.302;5.786;2022-11-14T02:14:41;6.90;99.90
57242;DHT22;43095;53.302;5.786;2022-11-14T02:17:29;6.70;99.90
57242;DHT22;43095;53.302;5.786;2022-11-14T02:20:17;6.80;99.90
57242;DHT22;43095;53.302;5.786;2022-11-14T02:23:03;6.80;99.90
57242;DHT22;43095;53.302;5.786;2022-11-14T02:25:49;6.90;99.90
57242;DHT22;43095;53.302;5.786;2022-11-14T02:28:35;6.90;99.90
57242;DHT22;43095;53.302;5.786;2022-11-14T02:31:21;6.90;99.90
57242;DHT22;43095;53.302;5.786;2022-11-14T02:34:07;6.90;99.90
57242;DHT22;43095;53.302;5.786;2022-11-14T02:36:53;6.90;99.90
57242;DHT22;43095;53.302;5.786;2022-11-14T02:39:38;6.90;99.90
57242;DHT22;43095;53.302;5.786;2022-11-14T02:42:25;6.80;99.90
57242;DHT22;43095;53.302;5.786;2022-11-14T02:45:11;6.90;99.90
57242;DHT22;43095;53.302;5.786;2022-11-14T02:47:58;6.90;99.90
57242;DHT22;43095;53.302;5.786;2022-11-14T02:50:46;6.90;99.90
57242;DHT22;43095;53.302;5.786;2022-11-14T02:53:32;6.90;99.90
57242;DHT22;43095;53.302;5.786;2022-11-14T02:56:18;6.80;99.90
57242;DHT22;43095;53.302;5.786;2022-11-14T02:59:05;6.80;99.90
57242;DHT22;43095;53.302;5.786;2022-11-14T03:01:50;6.80;99.90
57242;DHT22;43095;53.302;5.786;2022-11-14T03:04:36;6.80;99.90
57242;DHT22;43095;53.302;5.786;2022-11-14T03:07:22;6.90;99.90
57242;DHT22;43095;53.302;5.786;2022-11-14T03:10:09;6.80;99.90
57242;DHT22;43095;53.302;5.786;2022-11-14T03:12:56;6.80;99.90
57242;DHT22;43095;53.302;5.786;2022-11-14T03:15:42;6.80;99.90
57242;DHT22;43095;53.302;5.786;2022-11-14T03:18:28;6.70;99.90
57242;DHT22;43095;53.302;5.786;2022-11-14T03:21:20;6.70;99.90
57242;DHT22;43095;53.302;5.786;2022-11-14T03:24:09;6.80;99.90
57242;DHT22;43095;53.302;5.786;2022-11-14T03:26:55;6.70;99.90
57242;DHT22;43095;53.302;5.786;2022-11-14T03:29:41;6.70;99.90
57242;DHT22;43095;53.302;5.786;2022-11-14T03:32:26;6.70;99.90
57242;DHT22;43095;53.302;5.786;2022-11-14T03:35:13;6.70;99.90
57242;DHT22;43095;53.302;5.786;2022-11-14T03:37:58;6.70;99.90
57242;DHT22;43095;53.302;5.786;2022-11-14T03:40:44;6.70;99.90
57242;DHT22;43095;53.302;5.786;2022-11-14T03:43:32;6.70;99.90
57242;DHT22;43095;53.302;5.786;2022-11-14T03:46:18;6.70;99.90
57242;DHT22;43095;53.302;5.786;2022-11-14T03:49:04;6.70;99.90
57242;DHT22;43095;53.302;5.786;2022-11-14T03:51:50;6.70;99.90
57242;DHT22;43095;53.302;5.786;2022-11-14T03:54:37;6.80;99.90
57242;DHT22;43095;53.302;5.786;2022-11-14T03:57:22;6.60;99.90
57242;DHT22;43095;53.302;5.786;2022-11-14T04:00:09;6.70;99.90
57242;DHT22;43095;53.302;5.786;2022-11-14T04:02:56;6.70;99.90
57242;DHT22;43095;53.302;5.786;2022-11-14T04:05:43;6.80;99.90
57242;DHT22;43095;53.302;5.786;2022-11-14T04:08:30;6.50;99.90
57242;DHT22;43095;53.302;5.786;2022-11-14T04:11:17;6.60;99.90
57242;DHT22;43095;53.302;5.786;2022-11-14T04:14:03;6.70;99.90
57242;DHT22;43095;53.302;5.786;2022-11-14T04:16:49;6.70;99.90
57242;DHT22;43095;53.302;5.786;2022-11-14T04:19:35;6.70;99.90
57242;DHT22;43095;53.302;5.786;2022-11-14T04:22:21;6.60;99.90
57242;DHT22;43095;53.302;5.786;2022-11-14T04:25:08;6.50;99.90
57242;DHT22;43095;53.302;5.786;2022-11-14T04:27:53;6.60;99.90
57242;DHT22;43095;53.302;5.786;2022-11-14T04:30:40;6.70;99.90
57242;DHT22;43095;53.302;5.786;2022-11-14T04:33:26;6.70;99.90
57242;DHT22;43095;53.302;5.786;2022-11-14T04:36:12;6.70;99.90
57242;DHT22;43095;53.302;5.786;2022-11-14T04:38:58;6.70;99.90
57242;DHT22;43095;53.302;5.786;2022-11-14T04:41:44;6.70;99.90
57242;DHT22;43095;53.302;5.786;2022-11-14T04:44:30;6.70;99.90
57242;DHT22;43095;53.302;5.786;2022-11-14T04:47:15;6.70;99.90
57242;DHT22;43095;53.302;5.786;2022-11-14T04:50:02;6.70;99.90
57242;DHT22;43095;53.302;5.786;2022-11-14T04:52:52;6.70;99.90
57242;DHT22;43095;53.302;5.786;2022-11-14T04:55:39;6.70;99.90
57242;DHT22;43095;53.302;5.786;2022-11-14T04:58:25;6.70;99.90
57242;DHT22;43095;53.302;5.786;2022-11-14T05:01:12;6.70;99.90
57242;DHT22;43095;53.302;5.786;2022-11-14T05:03:58;6.70;99.90
57242;DHT22;43095;53.302;5.786;2022-11-14T05:06:45;6.70;99.90
57242;DHT22;43095;53.302;5.786;2022-11-14T05:09:30;6.60;99.90
57242;DHT22;43095;53.302;5.786;2022-11-14T05:12:17;6.70;99.90
57242;DHT22;43095;53.302;5.786;2022-11-14T05:15:02;6.70;99.90
57242;DHT22;43095;53.302;5.786;2022-11-14T05:17:48;6.70;99.90
57242;DHT22;43095;53.302;5.786;2022-11-14T05:20:35;6.80;99.90
57242;DHT22;43095;53.302;5.786;2022-11-14T05:23:22;6.70;99.90
57242;DHT22;43095;53.302;5.786;2022-11-14T05:26:11;6.60;99.90
57242;DHT22;43095;53.302;5.786;2022-11-14T05:28:57;6.70;99.90
57242;DHT22;43095;53.302;5.786;2022-11-14T05:31:43;6.60;99.90
57242;DHT22;43095;53.302;5.786;2022-11-14T05:34:28;6.60;99.90
57242;DHT22;43095;53.302;5.786;2022-11-14T05:37:14;6.70;99.90
57242;DHT22;43095;53.302;5.786;2022-11-14T05:40:01;6.70;99.90
57242;DHT22;43095;53.302;5.786;2022-11-14T05:42:47;6.60;99.90
57242;DHT22;43095;53.302;5.786;2022-11-14T05:45:33;6.60;99.90
57242;DHT22;43095;53.302;5.786;2022-11-14T05:48:19;6.80;99.90
57242;DHT22;43095;53.302;5.786;2022-11-14T05:51:06;6.70;99.90
57242;DHT22;43095;53.302;5.786;2022-11-14T05:53:52;6.80;99.90
57242;DHT22;43095;53.302;5.786;2022-11-14T05:56:39;6.80;99.90
57242;DHT22;43095;53.302;5.786;2022-11-14T05:59:25;6.70;99.90
57242;DHT22;43095;53.302;5.786;2022-11-14T06:02:10;6.60;99.90
57242;DHT22;43095;53.302;5.786;2022-11-14T06:04:56;6.50;99.90
57242;DHT22;43095;53.302;5.786;2022-11-14T06:07:42;6.60;99.90
57242;DHT22;43095;53.302;5.786;2022-11-14T06:10:29;6.60;99.90
57242;DHT22;43095;53.302;5.786;2022-11-14T06:13:14;6.60;99.90
57242;DHT22;43095;53.302;5.786;2022-11-14T06:16:13;6.50;99.90
57242;DHT22;43095;53.302;5.786;2022-11-14T06:18:59;6.50;99.90
57242;DHT22;43095;53.302;5.786;2022-11-14T06:21:46;6.50;99.90
57242;DHT22;43095;53.302;5.786;2022-11-14T06:24:31;6.50;99.90
57242;DHT22;43095;53.302;5.786;2022-11-14T06:27:18;6.50;99.90
57242;DHT22;43095;53.302;5.786;2022-11-14T06:30:04;6.50;99.90
57242;DHT22;43095;53.302;5.786;2022-11-14T06:32:55;6.60;99.90
57242;DHT22;43095;53.302;5.786;2022-11-14T06:35:42;6.70;99.90
57242;DHT22;43095;53.302;5.786;2022-11-14T06:38:30;6.60;99.90
57242;DHT22;43095;53.302;5.786;2022-11-14T06:41:18;6.50;99.90
57242;DHT22;43095;53.302;5.786;2022-11-14T06:44:06;6.50;99.90
57242;DHT22;43095;53.302;5.786;2022-11-14T06:46:53;6.50;99.90
57242;DHT22;43095;53.302;5.786;2022-11-14T06:49:39;6.60;99.90
57242;DHT22;43095;53.302;5.786;2022-11-14T06:52:25;6.50;99.90
57242;DHT22;43095;53.302;5.786;2022-11-14T06:55:11;6.50;99.90
57242;DHT22;43095;53.302;5.786;2022-11-14T06:57:58;6.50;99.90
57242;DHT22;43095;53.302;5.786;2022-11-14T07:00:44;6.70;99.90
57242;DHT22;43095;53.302;5.786;2022-11-14T07:03:29;6.60;99.90
57242;DHT22;43095;53.302;5.786;2022-11-14T07:06:19;6.40;99.90
57242;DHT22;43095;53.302;5.786;2022-11-14T07:09:05;6.50;99.90
57242;DHT22;43095;53.302;5.786;2022-11-14T07:11:51;6.60;99.90
57242;DHT22;43095;53.302;5.786;2022-11-14T07:14:37;6.50;99.90
57242;DHT22;43095;53.302;5.786;2022-11-14T07:17:23;6.50;99.90
57242;DHT22;43095;53.302;5.786;2022-11-14T07:20:15;6.50;99.90
57242;DHT22;43095;53.302;5.786;2022-11-14T07:23:02;6.60;99.90
57242;DHT22;43095;53.302;5.786;2022-11-14T07:25:48;6.50;99.90
57242;DHT22;43095;53.302;5.786;2022-11-14T07:28:35;6.50;99.90
57242;DHT22;43095;53.302;5.786;2022-11-14T07:31:22;6.60;99.90
57242;DHT22;43095;53.302;5.786;2022-11-14T07:34:08;6.60;99.90
57242;DHT22;43095;53.302;5.786;2022-11-14T07:36:57;6.60;99.90
57242;DHT22;43095;53.302;5.786;2022-11-14T07:39:43;6.50;99.90
57242;DHT22;43095;53.302;5.786;2022-11-14T07:42:30;6.50;99.90
57242;DHT22;43095;53.302;5.786;2022-11-14T07:45:16;6.50;99.90
57242;DHT22;43095;53.302;5.786;2022-11-14T07:48:02;6.60;99.90
57242;DHT22;43095;53.302;5.786;2022-11-14T07:50:48;6.60;99.90
57242;DHT22;43095;53.302;5.786;2022-11-14T07:53:34;6.60;99.90
57242;DHT22;43095;53.302;5.786;2022-11-14T07:56:20;6.60;99.90
57242;DHT22;43095;53.302;5.786;2022-11-14T07:59:07;6.70;99.90
57242;DHT22;43095;53.302;5.786;2022-11-14T08:01:53;6.70;99.90
57242;DHT22;43095;53.302;5.786;2022-11-14T08:04:40;6.70;99.90
57242;DHT22;43095;53.302;5.786;2022-11-14T08:07:26;6.70;99.90
57242;DHT22;43095;53.302;5.786;2022-11-14T08:10:15;6.70;99.90
57242;DHT22;43095;53.302;5.786;2022-11-14T08:13:04;6.80;99.90
57242;DHT22;43095;53.302;5.786;2022-11-14T08:16:10;6.70;99.90
57242;DHT22;43095;53.302;5.786;2022-11-14T08:18:59;6.70;99.90
57242;DHT22;43095;53.302;5.786;2022-11-14T08:21:45;6.70;99.90
57242;DHT22;43095;53.302;5.786;2022-11-14T08:24:30;6.70;99.90
57242;DHT22;43095;53.302;5.786;2022-11-14T08:27:16;6.60;99.90
57242;DHT22;43095;53.302;5.786;2022-11-14T08:30:05;6.70;99.90
57242;DHT22;43095;53.302;5.786;2022-11-14T08:32:51;6.70;99.90
57242;DHT22;43095;53.302;5.786;2022-11-14T08:35:37;6.70;99.90
57242;DHT22;43095;53.302;5.786;2022-11-14T08:38:22;6.70;99.90
57242;DHT22;43095;53.302;5.786;2022-11-14T08:41:08;6.80;99.90
57242;DHT22;43095;53.302;5.786;2022-11-14T08:43:54;6.70;99.90
57242;DHT22;43095;53.302;5.786;2022-11-14T08:46:40;6.70;99.90
57242;DHT22;43095;53.302;5.786;2022-11-14T08:49:26;6.70;99.90
57242;DHT22;43095;53.302;5.786;2022-11-14T08:52:13;6.70;99.90
57242;DHT22;43095;53.302;5.786;2022-11-14T08:55:01;6.80;99.90
57242;DHT22;43095;53.302;5.786;2022-11-14T08:57:47;6.80;99.90
57242;DHT22;43095;53.302;5.786;2022-11-14T09:00:34;6.80;99.90
57242;DHT22;43095;53.302;5.786;2022-11-14T09:03:20;6.80;99.90
57242;DHT22;43095;53.302;5.786;2022-11-14T09:06:06;6.70;99.90
57242;DHT22;43095;53.302;5.786;2022-11-14T09:08:52;6.80;99.90
57242;DHT22;43095;53.302;5.786;2022-11-14T09:11:38;6.80;99.90
57242;DHT22;43095;53.302;5.786;2022-11-14T09:14:24;6.90;99.90
57242;DHT22;43095;53.302;5.786;2022-11-14T09:17:11;7.00;99.90
57242;DHT22;43095;53.302;5.786;2022-11-14T09:19:58;6.90;99.90
57242;DHT22;43095;53.302;5.786;2022-11-14T09:22:43;6.90;99.90
57242;DHT22;43095;53.302;5.786;2022-11-14T09:25:30;7.00;99.90
57242;DHT22;43095;53.302;5.786;2022-11-14T09:28:16;7.10;99.90
57242;DHT22;43095;53.302;5.786;2022-11-14T09:31:09;7.00;99.90
57242;DHT22;43095;53.302;5.786;2022-11-14T09:33:55;7.10;99.90
57242;DHT22;43095;53.302;5.786;2022-11-14T09:36:40;7.10;99.90
57242;DHT22;43095;53.302;5.786;2022-11-14T09:39:26;7.10;99.90
57242;DHT22;43095;53.302;5.786;2022-11-14T09:45:14;7.10;99.90
57242;DHT22;43095;53.302;5.786;2022-11-14T09:48:13;7.20;99.90
57242;DHT22;43095;53.302;5.786;2022-11-14T09:51:07;7.20;99.90
57242;DHT22;43095;53.302;5.786;2022-11-14T09:54:19;7.20;99.90
57242;DHT22;43095;53.302;5.786;2022-11-14T09:57:13;7.30;99.90
57242;DHT22;43095;53.302;5.786;2022-11-14T09:59:59;7.40;99.90
57242;DHT22;43095;53.302;5.786;2022-11-14T10:11:55;7.50;99.90
57242;DHT22;43095;53.302;5.786;2022-11-14T10:18:00;7.80;99.90
57242;DHT22;43095;53.302;5.786;2022-11-14T10:20:52;7.90;99.90
57242;DHT22;43095;53.302;5.786;2022-11-14T10:23:56;7.80;99.90
57242;DHT22;43095;53.302;5.786;2022-11-14T10:26:59;7.90;99.90
57242;DHT22;43095;53.302;5.786;2022-11-14T10:36:20;8.10;99.90
57242;DHT22;43095;53.302;5.786;2022-11-14T10:39:23;8.20;99.90
57242;DHT22;43095;53.302;5.786;2022-11-14T10:45:35;8.30;99.90
57242;DHT22;43095;53.302;5.786;2022-11-14T10:48:35;8.40;99.90
57242;DHT22;43095;53.302;5.786;2022-11-14T10:54:58;8.50;99.90
57242;DHT22;43095;53.302;5.786;2022-11-14T10:57:45;8.90;99.90
57242;DHT22;43095;53.302;5.786;2022-11-14T11:00:30;8.70;99.90
57242;DHT22;43095;53.302;5.786;2022-11-14T11:03:16;8.60;99.90
57242;DHT22;43095;53.302;5.786;2022-11-14T11:06:01;8.70;99.90
57242;DHT22;43095;53.302;5.786;2022-11-14T11:08:47;8.80;99.90
57242;DHT22;43095;53.302;5.786;2022-11-14T11:11:57;8.90;99.90
57242;DHT22;43095;53.302;5.786;2022-11-14T11:14:48;9.00;99.90
57242;DHT22;43095;53.302;5.786;2022-11-14T11:17:34;8.90;99.90
57242;DHT22;43095;53.302;5.786;2022-11-14T11:20:37;8.90;99.90
57242;DHT22;43095;53.302;5.786;2022-11-14T11:23:25;8.90;99.90
57242;DHT22;43095;53.302;5.786;2022-11-14T11:31:58;9.10;99.90
57242;DHT22;43095;53.302;5.786;2022-11-14T11:34:44;9.20;99.90
57242;DHT22;43095;53.302;5.786;2022-11-14T11:37:45;9.30;99.90
57242;DHT22;43095;53.302;5.786;2022-11-14T11:40:33;9.40;99.90
57242;DHT22;43095;53.302;5.786;2022-11-14T11:43:28;9.30;99.90
57242;DHT22;43095;53.302;5.786;2022-11-14T11:46:27;9.50;99.90
57242;DHT22;43095;53.302;5.786;2022-11-14T11:49:27;9.50;99.90
57242;DHT22;43095;53.302;5.786;2022-11-14T11:52:36;9.50;99.90
57242;DHT22;43095;53.302;5.786;2022-11-14T11:55:28;9.50;99.90
57242;DHT22;43095;53.302;5.786;2022-11-14T11:58:31;9.50;99.90
57242;DHT22;43095;53.302;5.786;2022-11-14T12:01:17;9.60;99.90
57242;DHT22;43095;53.302;5.786;2022-11-14T12:04:04;9.70;99.90
57242;DHT22;43095;53.302;5.786;2022-11-14T12:10:16;9.80;99.90
57242;DHT22;43095;53.302;5.786;2022-11-14T12:13:14;9.90;99.90
57242;DHT22;43095;53.302;5.786;2022-11-14T12:16:38;9.90;99.90
57242;DHT22;43095;53.302;5.786;2022-11-14T12:29:16;10.10;99.90
57242;DHT22;43095;53.302;5.786;2022-11-14T12:32:14;10.20;99.90
57242;DHT22;43095;53.302;5.786;2022-11-14T12:35:05;10.40;99.90
57242;DHT22;43095;53.302;5.786;2022-11-14T12:37:53;10.60;99.90
57242;DHT22;43095;53.302;5.786;2022-11-14T12:40:49;10.60;99.90
57242;DHT22;43095;53.302;5.786;2022-11-14T12:43:38;10.60;99.90
57242;DHT22;43095;53.302;5.786;2022-11-14T12:52:43;11.00;99.90
57242;DHT22;43095;53.302;5.786;2022-11-14T12:58:45;11.30;99.90
57242;DHT22;43095;53.302;5.786;2022-11-14T13:08:48;11.70;99.90
57242;DHT22;43095;53.302;5.786;2022-11-14T13:10:58;11.80;99.90
57242;DHT22;43095;53.302;5.786;2022-11-14T13:14:00;11.80;99.90
57242;DHT22;43095;53.302;5.786;2022-11-14T13:20:31;12.00;99.90
57242;DHT22;43095;53.302;5.786;2022-11-14T13:35:49;11.50;99.90
57242;DHT22;43095;53.302;5.786;2022-11-14T13:45:43;10.60;99.90
57242;DHT22;43095;53.302;5.786;2022-11-14T13:48:13;10.50;99.90
57242;DHT22;43095;53.302;5.786;2022-11-14T13:51:06;10.20;99.90
57242;DHT22;43095;53.302;5.786;2022-11-14T13:54:15;10.20;99.90
57242;DHT22;43095;53.302;5.786;2022-11-14T14:00:17;9.90;99.90
57242;DHT22;43095;53.302;5.786;2022-11-14T14:12:27;9.70;99.90
57242;DHT22;43095;53.302;5.786;2022-11-14T14:15:32;9.70;99.90
57242;DHT22;43095;53.302;5.786;2022-11-14T14:28:13;9.50;99.90
57242;DHT22;43095;53.302;5.786;2022-11-14T14:31:20;9.40;99.90
57242;DHT22;43095;53.302;5.786;2022-11-14T14:34:27;9.40;99.90
57242;DHT22;43095;53.302;5.786;2022-11-14T14:37:26;9.30;99.90
57242;DHT22;43095;53.302;5.786;2022-11-14T14:40:26;9.20;99.90
57242;DHT22;43095;53.302;5.786;2022-11-14T14:43:31;9.10;99.90
57242;DHT22;43095;53.302;5.786;2022-11-14T14:46:31;9.00;99.90
57242;DHT22;43095;53.302;5.786;2022-11-14T14:49:55;9.00;99.90
57242;DHT22;43095;53.302;5.786;2022-11-14T14:52:35;8.80;99.90
57242;DHT22;43095;53.302;5.786;2022-11-14T14:55:27;8.80;99.90
57242;DHT22;43095;53.302;5.786;2022-11-14T14:58:24;8.70;99.90
57242;DHT22;43095;53.302;5.786;2022-11-14T15:01:15;8.70;99.90
57242;DHT22;43095;53.302;5.786;2022-11-14T15:04:05;8.60;99.90
57242;DHT22;43095;53.302;5.786;2022-11-14T15:06:55;8.50;99.90
57242;DHT22;43095;53.302;5.786;2022-11-14T15:09:59;8.40;99.90
57242;DHT22;43095;53.302;5.786;2022-11-14T15:12:45;8.40;99.90
57242;DHT22;43095;53.302;5.786;2022-11-14T15:15:32;8.30;99.90
57242;DHT22;43095;53.302;5.786;2022-11-14T15:18:27;8.30;99.90
57242;DHT22;43095;53.302;5.786;2022-11-14T15:21:36;8.30;99.90
57242;DHT22;43095;53.302;5.786;2022-11-14T15:24:22;8.20;99.90
57242;DHT22;43095;53.302;5.786;2022-11-14T15:27:14;8.20;99.90
57242;DHT22;43095;53.302;5.786;2022-11-14T15:30:03;8.10;99.90
57242;DHT22;43095;53.302;5.786;2022-11-14T15:32:52;7.80;99.90
57242;DHT22;43095;53.302;5.786;2022-11-14T15:35:39;7.70;99.90
57242;DHT22;43095;53.302;5.786;2022-11-14T15:38:25;7.50;99.90
57242;DHT22;43095;53.302;5.786;2022-11-14T15:41:30;7.50;99.90
57242;DHT22;43095;53.302;5.786;2022-11-14T15:44:30;7.40;99.90
57242;DHT22;43095;53.302;5.786;2022-11-14T15:47:38;7.20;99.90
57242;DHT22;43095;53.302;5.786;2022-11-14T15:50:31;7.20;99.90
57242;DHT22;43095;53.302;5.786;2022-11-14T15:53:23;7.10;99.90
57242;DHT22;43095;53.302;5.786;2022-11-14T15:56:11;7.10;99.90
57242;DHT22;43095;53.302;5.786;2022-11-14T15:59:00;7.10;99.90
57242;DHT22;43095;53.302;5.786;2022-11-14T16:01:58;7.00;99.90
57242;DHT22;43095;53.302;5.786;2022-11-14T16:04:44;7.20;99.90
57242;DHT22;43095;53.302;5.786;2022-11-14T16:07:32;7.30;99.90
57242;DHT22;43095;53.302;5.786;2022-11-14T16:10:23;7.30;99.90
57242;DHT22;43095;53.302;5.786;2022-11-14T16:13:08;7.40;99.90
57242;DHT22;43095;53.302;5.786;2022-11-14T16:15:55;7.40;99.90
57242;DHT22;43095;53.302;5.786;2022-11-14T16:18:41;7.50;99.90
57242;DHT22;43095;53.302;5.786;2022-11-14T16:21:27;7.50;99.90
57242;DHT22;43095;53.302;5.786;2022-11-14T16:24:19;7.70;99.90
57242;DHT22;43095;53.302;5.786;2022-11-14T16:27:05;7.70;99.90
57242;DHT22;43095;53.302;5.786;2022-11-14T16:29:51;7.80;99.90
57242;DHT22;43095;53.302;5.786;2022-11-14T16:32:37;7.80;99.90
57242;DHT22;43095;53.302;5.786;2022-11-14T16:35:25;7.80;99.90
57242;DHT22;43095;53.302;5.786;2022-11-14T16:38:12;8.10;99.90
57242;DHT22;43095;53.302;5.786;2022-11-14T16:40:58;7.90;99.90
57242;DHT22;43095;53.302;5.786;2022-11-14T16:43:44;8.00;99.90
57242;DHT22;43095;53.302;5.786;2022-11-14T16:46:30;8.10;99.90
57242;DHT22;43095;53.302;5.786;2022-11-14T16:49:16;8.10;99.90
57242;DHT22;43095;53.302;5.786;2022-11-14T16:52:03;8.20;99.90
57242;DHT22;43095;53.302;5.786;2022-11-14T16:54:53;8.30;99.90
57242;DHT22;43095;53.302;5.786;2022-11-14T16:57:39;8.30;99.90
57242;DHT22;43095;53.302;5.786;2022-11-14T17:00:25;8.30;99.90
57242;DHT22;43095;53.302;5.786;2022-11-14T17:03:14;8.40;99.90
57242;DHT22;43095;53.302;5.786;2022-11-14T17:06:00;8.40;99.90
57242;DHT22;43095;53.302;5.786;2022-11-14T17:08:45;8.40;99.90
57242;DHT22;43095;53.302;5.786;2022-11-14T17:11:31;8.30;99.90
57242;DHT22;43095;53.302;5.786;2022-11-14T17:14:17;8.40;99.90
57242;DHT22;43095;53.302;5.786;2022-11-14T17:17:03;8.30;99.90
57242;DHT22;43095;53.302;5.786;2022-11-14T17:19:48;8.40;99.90
57242;DHT22;43095;53.302;5.786;2022-11-14T17:22:34;8.40;99.90
57242;DHT22;43095;53.302;5.786;2022-11-14T17:25:21;8.40;99.90
57242;DHT22;43095;53.302;5.786;2022-11-14T17:28:07;8.50;99.90
57242;DHT22;43095;53.302;5.786;2022-11-14T17:30:53;8.40;99.90
57242;DHT22;43095;53.302;5.786;2022-11-14T17:33:39;8.50;99.90
57242;DHT22;43095;53.302;5.786;2022-11-14T17:36:27;8.50;99.90
57242;DHT22;43095;53.302;5.786;2022-11-14T17:39:13;8.50;99.90
57242;DHT22;43095;53.302;5.786;2022-11-14T17:41:59;8.50;99.90
57242;DHT22;43095;53.302;5.786;2022-11-14T17:44:45;8.50;99.90
57242;DHT22;43095;53.302;5.786;2022-11-14T17:47:31;8.50;99.90
57242;DHT22;43095;53.302;5.786;2022-11-14T17:50:17;8.40;99.90
57242;DHT22;43095;53.302;5.786;2022-11-14T17:53:02;8.50;99.90
57242;DHT22;43095;53.302;5.786;2022-11-14T17:55:55;8.40;99.90
57242;DHT22;43095;53.302;5.786;2022-11-14T17:58:42;8.50;99.90
57242;DHT22;43095;53.302;5.786;2022-11-14T18:01:28;8.40;99.90
57242;DHT22;43095;53.302;5.786;2022-11-14T18:04:16;8.50;99.90
57242;DHT22;43095;53.302;5.786;2022-11-14T18:07:02;8.40;99.90
57242;DHT22;43095;53.302;5.786;2022-11-14T18:09:48;8.50;99.90
57242;DHT22;43095;53.302;5.786;2022-11-14T18:12:33;8.50;99.90
57242;DHT22;43095;53.302;5.786;2022-11-14T18:15:19;8.40;99.90
57242;DHT22;43095;53.302;5.786;2022-11-14T18:18:14;8.60;99.90
57242;DHT22;43095;53.302;5.786;2022-11-14T18:21:20;8.50;99.90
57242;DHT22;43095;53.302;5.786;2022-11-14T18:24:11;8.50;99.90
57242;DHT22;43095;53.302;5.786;2022-11-14T18:26:56;8.40;99.90
57242;DHT22;43095;53.302;5.786;2022-11-14T18:29:43;8.50;99.90
57242;DHT22;43095;53.302;5.786;2022-11-14T18:32:29;8.50;99.90
57242;DHT22;43095;53.302;5.786;2022-11-14T18:35:15;8.50;99.90
57242;DHT22;43095;53.302;5.786;2022-11-14T18:38:01;8.40;99.90
57242;DHT22;43095;53.302;5.786;2022-11-14T18:40:46;8.40;99.90
57242;DHT22;43095;53.302;5.786;2022-11-14T18:43:39;8.40;99.90
57242;DHT22;43095;53.302;5.786;2022-11-14T18:46:25;8.40;99.90
57242;DHT22;43095;53.302;5.786;2022-11-14T18:49:10;8.30;99.90
57242;DHT22;43095;53.302;5.786;2022-11-14T18:51:56;8.30;99.90
57242;DHT22;43095;53.302;5.786;2022-11-14T18:54:48;8.30;99.90
57242;DHT22;43095;53.302;5.786;2022-11-14T18:57:34;8.30;99.90
57242;DHT22;43095;53.302;5.786;2022-11-14T19:00:19;8.20;99.90
57242;DHT22;43095;53.302;5.786;2022-11-14T19:03:05;8.20;99.90
57242;DHT22;43095;53.302;5.786;2022-11-14T19:05:50;8.30;99.90
57242;DHT22;43095;53.302;5.786;2022-11-14T19:08:36;8.30;99.90
57242;DHT22;43095;53.302;5.786;2022-11-14T19:11:22;8.40;99.90
57242;DHT22;43095;53.302;5.786;2022-11-14T19:14:26;8.20;99.90
57242;DHT22;43095;53.302;5.786;2022-11-14T19:17:12;8.30;99.90
57242;DHT22;43095;53.302;5.786;2022-11-14T19:19:58;8.30;99.90
57242;DHT22;43095;53.302;5.786;2022-11-14T19:22:44;8.30;99.90
57242;DHT22;43095;53.302;5.786;2022-11-14T19:25:30;8.30;99.90
57242;DHT22;43095;53.302;5.786;2022-11-14T19:28:24;8.30;99.90
57242;DHT22;43095;53.302;5.786;2022-11-14T19:31:11;8.30;99.90
57242;DHT22;43095;53.302;5.786;2022-11-14T19:33:57;8.30;99.90
57242;DHT22;43095;53.302;5.786;2022-11-14T19:36:43;8.30;99.90
57242;DHT22;43095;53.302;5.786;2022-11-14T19:39:45;8.30;99.90
57242;DHT22;43095;53.302;5.786;2022-11-14T19:42:30;8.30;99.90
57242;DHT22;43095;53.302;5.786;2022-11-14T19:45:16;8.30;99.90
57242;DHT22;43095;53.302;5.786;2022-11-14T19:48:02;8.20;99.90
57242;DHT22;43095;53.302;5.786;2022-11-14T19:51:09;8.30;99.90